This is the latest recevied weather packets stored in our database for station/object W1MJC. If no packets are shown the sender has not sent any weather packets the latest 10 day(s).
| Time | Temp. | Humidity | Pressure | Rain* | Wind** | Luminosity | Snow |
|---|---|---|---|---|---|---|---|
| 1778072741 | 7.78° C | 73% | 1008.8 hPa | 0 mm | - | - | - |
| 1778070320 | 7.22° C | 67% | 1008.4 hPa | 0 mm | - | - | - |
| 1778069128 | 7.22° C | 68% | 1008.1 hPa | 0 mm | - | - | - |
| 1778060721 | 5° C | 74% | 1006.6 hPa | 0 mm | - | - | - |
| 1778055929 | 6.67° C | 66% | 1006.2 hPa | 0 mm | - | - | - |
| 1778052319 | 7.22° C | 66% | 1006.3 hPa | 0 mm | - | - | - |
| 1778049918 | 7.78° C | 63% | 1006.2 hPa | 0 mm | - | - | - |
| 1778045729 | 7.78° C | 67% | 1006.3 hPa | 0 mm | - | - | - |
| 1778041523 | 7.78° C | 70% | 1006.1 hPa | 0 mm | - | - | - |
| 1778038526 | 7.78° C | 72% | 1005.8 hPa | 0 mm | - | - | - |
| 1778037316 | 7.78° C | 71% | 1005.8 hPa | 0 mm | - | - | - |
| 1778036125 | 7.78° C | 69% | 1005.8 hPa | 0 mm | - | - | - |
| 1778033127 | 7.78° C | 71% | 1005.6 hPa | 0 mm | - | - | - |
| 1778032531 | 8.33° C | 71% | 1005.6 hPa | 0 mm | - | - | - |
| 1778031322 | 8.33° C | 70% | 1005.3 hPa | 0 mm | - | - | - |
| 1778030130 | 8.89° C | 63% | 1005 hPa | 0 mm | - | - | - |
| 1778024733 | 10° C | 55% | 1004.8 hPa | 0 mm | - | - | - |
| 1777674324 | 6.67° C | 67% | 1012.1 hPa | 0 mm | - | - | - |
| 1777673727 | 6.67° C | 66% | 1012.1 hPa | 0 mm | - | - | - |
| 1777671921 | 7.22° C | 68% | 1012 hPa | 0 mm | - | - | - |
| 1777664121 | 8.33° C | 60% | 1011.3 hPa | 0 mm | - | - | - |
| 1777662316 | 8.33° C | 59% | 1011.1 hPa | 0 mm | - | - | - |
| 1777660529 | 8.33° C | 59% | 1010.9 hPa | 0 mm | - | - | - |
| 1777658724 | 8.33° C | 61% | 1011 hPa | 0 mm | - | - | - |
| 1777656322 | 9.44° C | 55% | 1010.7 hPa | 0 mm | - | - | - |
* Rain latest hour (hover to see other rain measurements)
** Current wind speed in m/s (hover to see current wind gust speed)